sensor_id;sensor_type;location;lat;lon;timestamp;P1;durP1;ratioP1;P2;durP2;ratioP2
56122;SDS011;42426;46.104;19.656;2022-09-03T00:01:42;7.97;;;6.47;;
56122;SDS011;42426;46.104;19.656;2022-09-03T00:04:23;7.57;;;6.35;;
56122;SDS011;42426;46.104;19.656;2022-09-03T00:07:14;7.75;;;6.78;;
56122;SDS011;42426;46.104;19.656;2022-09-03T00:09:48;9.80;;;6.65;;
56122;SDS011;42426;46.104;19.656;2022-09-03T00:12:21;7.70;;;6.65;;
56122;SDS011;42426;46.104;19.656;2022-09-03T00:17:37;7.53;;;6.10;;
56122;SDS011;42426;46.104;19.656;2022-09-03T00:22:40;7.03;;;5.97;;
56122;SDS011;42426;46.104;19.656;2022-09-03T00:25:10;7.85;;;6.93;;
56122;SDS011;42426;46.104;19.656;2022-09-03T00:27:57;7.55;;;5.90;;
56122;SDS011;42426;46.104;19.656;2022-09-03T00:30:28;6.78;;;5.75;;
56122;SDS011;42426;46.104;19.656;2022-09-03T00:33:03;7.43;;;6.20;;
56122;SDS011;42426;46.104;19.656;2022-09-03T00:38:04;7.65;;;6.43;;
56122;SDS011;42426;46.104;19.656;2022-09-03T00:43:37;10.38;;;5.97;;
56122;SDS011;42426;46.104;19.656;2022-09-03T00:46:22;8.30;;;6.50;;
56122;SDS011;42426;46.104;19.656;2022-09-03T01:00:21;8.48;;;6.30;;
56122;SDS011;42426;46.104;19.656;2022-09-03T01:13:22;8.98;;;6.10;;
56122;SDS011;42426;46.104;19.656;2022-09-03T01:26:46;8.32;;;6.50;;
56122;SDS011;42426;46.104;19.656;2022-09-03T01:35:00;9.10;;;7.13;;
56122;SDS011;42426;46.104;19.656;2022-09-03T01:45:33;10.52;;;7.40;;
56122;SDS011;42426;46.104;19.656;2022-09-03T01:48:18;8.77;;;6.18;;
56122;SDS011;42426;46.104;19.656;2022-09-03T01:51:01;8.50;;;6.55;;
56122;SDS011;42426;46.104;19.656;2022-09-03T02:02:04;8.75;;;6.43;;
56122;SDS011;42426;46.104;19.656;2022-09-03T02:04:53;9.00;;;6.18;;
56122;SDS011;42426;46.104;19.656;2022-09-03T02:07:24;8.30;;;6.07;;
56122;SDS011;42426;46.104;19.656;2022-09-03T02:10:03;7.07;;;6.32;;
56122;SDS011;42426;46.104;19.656;2022-09-03T02:12:33;7.70;;;6.00;;
56122;SDS011;42426;46.104;19.656;2022-09-03T02:15:03;7.55;;;6.35;;
56122;SDS011;42426;46.104;19.656;2022-09-03T02:17:32;7.72;;;6.18;;
56122;SDS011;42426;46.104;19.656;2022-09-03T02:20:01;9.25;;;7.05;;
56122;SDS011;42426;46.104;19.656;2022-09-03T02:22:30;10.55;;;7.15;;
56122;SDS011;42426;46.104;19.656;2022-09-03T02:24:57;9.93;;;8.25;;
56122;SDS011;42426;46.104;19.656;2022-09-03T02:27:23;8.52;;;7.60;;
56122;SDS011;42426;46.104;19.656;2022-09-03T02:29:48;10.32;;;8.23;;
56122;SDS011;42426;46.104;19.656;2022-09-03T02:32:18;11.10;;;9.25;;
56122;SDS011;42426;46.104;19.656;2022-09-03T02:34:44;8.02;;;7.10;;
56122;SDS011;42426;46.104;19.656;2022-09-03T02:37:14;10.05;;;7.93;;
56122;SDS011;42426;46.104;19.656;2022-09-03T02:39:42;9.23;;;6.97;;
56122;SDS011;42426;46.104;19.656;2022-09-03T02:42:13;8.13;;;6.57;;
56122;SDS011;42426;46.104;19.656;2022-09-03T02:44:47;8.48;;;7.10;;
56122;SDS011;42426;46.104;19.656;2022-09-03T02:47:40;8.85;;;6.65;;
56122;SDS011;42426;46.104;19.656;2022-09-03T02:50:26;7.32;;;6.30;;
56122;SDS011;42426;46.104;19.656;2022-09-03T02:52:52;8.57;;;6.63;;
56122;SDS011;42426;46.104;19.656;2022-09-03T02:55:19;7.93;;;6.32;;
56122;SDS011;42426;46.104;19.656;2022-09-03T02:57:45;9.25;;;8.27;;
56122;SDS011;42426;46.104;19.656;2022-09-03T03:00:12;10.05;;;8.30;;
56122;SDS011;42426;46.104;19.656;2022-09-03T03:02:38;8.50;;;7.22;;
56122;SDS011;42426;46.104;19.656;2022-09-03T03:05:14;7.68;;;6.60;;
56122;SDS011;42426;46.104;19.656;2022-09-03T03:07:48;10.82;;;8.20;;
56122;SDS011;42426;46.104;19.656;2022-09-03T03:10:21;8.73;;;6.85;;
56122;SDS011;42426;46.104;19.656;2022-09-03T03:12:47;10.40;;;7.25;;
56122;SDS011;42426;46.104;19.656;2022-09-03T03:15:26;8.07;;;6.90;;
56122;SDS011;42426;46.104;19.656;2022-09-03T03:17:54;9.77;;;7.43;;
56122;SDS011;42426;46.104;19.656;2022-09-03T03:23:09;9.23;;;7.07;;
56122;SDS011;42426;46.104;19.656;2022-09-03T03:28:26;8.40;;;7.00;;
56122;SDS011;42426;46.104;19.656;2022-09-03T03:30:52;10.25;;;8.00;;
56122;SDS011;42426;46.104;19.656;2022-09-03T03:33:17;11.55;;;7.85;;
56122;SDS011;42426;46.104;19.656;2022-09-03T03:35:43;9.02;;;7.32;;
56122;SDS011;42426;46.104;19.656;2022-09-03T03:38:09;11.18;;;7.50;;
56122;SDS011;42426;46.104;19.656;2022-09-03T03:40:36;7.95;;;7.15;;
56122;SDS011;42426;46.104;19.656;2022-09-03T03:43:03;8.20;;;6.88;;
56122;SDS011;42426;46.104;19.656;2022-09-03T03:45:29;10.30;;;6.70;;
56122;SDS011;42426;46.104;19.656;2022-09-03T03:47:56;8.75;;;6.80;;
56122;SDS011;42426;46.104;19.656;2022-09-03T03:50:23;21.08;;;7.65;;
56122;SDS011;42426;46.104;19.656;2022-09-03T03:52:49;10.50;;;7.00;;
56122;SDS011;42426;46.104;19.656;2022-09-03T03:55:15;8.73;;;7.70;;
56122;SDS011;42426;46.104;19.656;2022-09-03T03:57:41;10.57;;;7.40;;
56122;SDS011;42426;46.104;19.656;2022-09-03T04:00:07;10.57;;;6.82;;
56122;SDS011;42426;46.104;19.656;2022-09-03T04:02:33;10.65;;;7.25;;
56122;SDS011;42426;46.104;19.656;2022-09-03T04:04:59;10.38;;;7.00;;
56122;SDS011;42426;46.104;19.656;2022-09-03T04:07:24;10.30;;;7.63;;
56122;SDS011;42426;46.104;19.656;2022-09-03T04:09:51;10.50;;;7.57;;
56122;SDS011;42426;46.104;19.656;2022-09-03T04:12:17;9.88;;;7.45;;
56122;SDS011;42426;46.104;19.656;2022-09-03T04:14:43;10.07;;;8.20;;
56122;SDS011;42426;46.104;19.656;2022-09-03T04:17:09;9.30;;;7.43;;
56122;SDS011;42426;46.104;19.656;2022-09-03T04:19:35;13.05;;;7.53;;
56122;SDS011;42426;46.104;19.656;2022-09-03T04:22:02;9.60;;;7.88;;
56122;SDS011;42426;46.104;19.656;2022-09-03T04:24:28;10.43;;;7.72;;
56122;SDS011;42426;46.104;19.656;2022-09-03T04:26:54;12.15;;;7.25;;
56122;SDS011;42426;46.104;19.656;2022-09-03T04:29:19;9.20;;;7.60;;
56122;SDS011;42426;46.104;19.656;2022-09-03T04:31:46;10.68;;;8.13;;
56122;SDS011;42426;46.104;19.656;2022-09-03T04:36:58;11.32;;;7.60;;
56122;SDS011;42426;46.104;19.656;2022-09-03T04:39:24;11.55;;;7.47;;
56122;SDS011;42426;46.104;19.656;2022-09-03T04:41:50;11.75;;;8.98;;
56122;SDS011;42426;46.104;19.656;2022-09-03T04:44:15;11.10;;;8.75;;
56122;SDS011;42426;46.104;19.656;2022-09-03T04:46:41;11.82;;;8.48;;
56122;SDS011;42426;46.104;19.656;2022-09-03T04:49:08;19.40;;;9.82;;
56122;SDS011;42426;46.104;19.656;2022-09-03T04:51:34;10.02;;;8.25;;
56122;SDS011;42426;46.104;19.656;2022-09-03T04:54:02;9.50;;;8.43;;
56122;SDS011;42426;46.104;19.656;2022-09-03T04:56:29;12.65;;;9.30;;
56122;SDS011;42426;46.104;19.656;2022-09-03T04:58:57;9.23;;;8.25;;
56122;SDS011;42426;46.104;19.656;2022-09-03T05:01:25;12.35;;;7.38;;
56122;SDS011;42426;46.104;19.656;2022-09-03T05:03:52;12.75;;;9.32;;
56122;SDS011;42426;46.104;19.656;2022-09-03T05:06:20;10.85;;;8.98;;
56122;SDS011;42426;46.104;19.656;2022-09-03T05:08:49;10.70;;;8.35;;
56122;SDS011;42426;46.104;19.656;2022-09-03T05:11:19;11.88;;;8.65;;
56122;SDS011;42426;46.104;19.656;2022-09-03T05:14:10;13.50;;;9.63;;
56122;SDS011;42426;46.104;19.656;2022-09-03T05:16:36;13.65;;;9.43;;
56122;SDS011;42426;46.104;19.656;2022-09-03T05:19:02;10.65;;;9.27;;
56122;SDS011;42426;46.104;19.656;2022-09-03T05:21:30;14.07;;;9.50;;
56122;SDS011;42426;46.104;19.656;2022-09-03T05:23:56;16.17;;;10.68;;
56122;SDS011;42426;46.104;19.656;2022-09-03T05:26:25;13.75;;;10.60;;
56122;SDS011;42426;46.104;19.656;2022-09-03T05:28:56;13.05;;;9.68;;
56122;SDS011;42426;46.104;19.656;2022-09-03T05:31:24;15.80;;;9.63;;
56122;SDS011;42426;46.104;19.656;2022-09-03T05:33:55;12.65;;;8.88;;
56122;SDS011;42426;46.104;19.656;2022-09-03T05:36:23;13.00;;;9.32;;
56122;SDS011;42426;46.104;19.656;2022-09-03T05:38:51;10.63;;;9.52;;
56122;SDS011;42426;46.104;19.656;2022-09-03T05:41:18;11.82;;;9.50;;
56122;SDS011;42426;46.104;19.656;2022-09-03T05:43:49;14.15;;;8.68;;
56122;SDS011;42426;46.104;19.656;2022-09-03T05:46:20;14.25;;;10.10;;
56122;SDS011;42426;46.104;19.656;2022-09-03T05:48:52;14.43;;;9.73;;
56122;SDS011;42426;46.104;19.656;2022-09-03T05:51:18;13.40;;;9.90;;
56122;SDS011;42426;46.104;19.656;2022-09-03T05:53:45;13.65;;;9.55;;
56122;SDS011;42426;46.104;19.656;2022-09-03T05:56:13;11.32;;;8.93;;
56122;SDS011;42426;46.104;19.656;2022-09-03T05:58:46;10.77;;;8.82;;
56122;SDS011;42426;46.104;19.656;2022-09-03T06:01:14;11.48;;;9.15;;
56122;SDS011;42426;46.104;19.656;2022-09-03T06:03:45;13.15;;;8.48;;
56122;SDS011;42426;46.104;19.656;2022-09-03T06:06:12;11.50;;;8.57;;
56122;SDS011;42426;46.104;19.656;2022-09-03T06:08:39;16.30;;;9.00;;
56122;SDS011;42426;46.104;19.656;2022-09-03T06:11:06;11.48;;;9.13;;
56122;SDS011;42426;46.104;19.656;2022-09-03T06:13:33;11.07;;;8.50;;
56122;SDS011;42426;46.104;19.656;2022-09-03T06:16:01;10.02;;;8.88;;
56122;SDS011;42426;46.104;19.656;2022-09-03T06:18:28;12.73;;;9.07;;
56122;SDS011;42426;46.104;19.656;2022-09-03T06:20:56;11.15;;;8.63;;
56122;SDS011;42426;46.104;19.656;2022-09-03T06:23:27;9.93;;;8.05;;
56122;SDS011;42426;46.104;19.656;2022-09-03T06:26:00;12.68;;;8.48;;
56122;SDS011;42426;46.104;19.656;2022-09-03T06:28:35;10.32;;;7.78;;
56122;SDS011;42426;46.104;19.656;2022-09-03T06:31:03;9.20;;;8.25;;
56122;SDS011;42426;46.104;19.656;2022-09-03T06:33:31;9.07;;;7.75;;
56122;SDS011;42426;46.104;19.656;2022-09-03T06:35:59;9.43;;;7.10;;
56122;SDS011;42426;46.104;19.656;2022-09-03T06:38:27;10.30;;;6.70;;
56122;SDS011;42426;46.104;19.656;2022-09-03T06:40:56;10.13;;;7.15;;
56122;SDS011;42426;46.104;19.656;2022-09-03T06:43:27;12.50;;;6.68;;
56122;SDS011;42426;46.104;19.656;2022-09-03T06:46:05;7.47;;;6.70;;
56122;SDS011;42426;46.104;19.656;2022-09-03T06:48:32;8.45;;;6.45;;
56122;SDS011;42426;46.104;19.656;2022-09-03T06:51:00;8.68;;;5.85;;
56122;SDS011;42426;46.104;19.656;2022-09-03T06:53:28;8.65;;;6.40;;
56122;SDS011;42426;46.104;19.656;2022-09-03T06:55:56;7.25;;;6.50;;
56122;SDS011;42426;46.104;19.656;2022-09-03T06:58:24;7.47;;;6.47;;
56122;SDS011;42426;46.104;19.656;2022-09-03T07:00:59;10.05;;;6.20;;
56122;SDS011;42426;46.104;19.656;2022-09-03T07:03:39;10.35;;;6.72;;
56122;SDS011;42426;46.104;19.656;2022-09-03T07:06:09;8.95;;;7.45;;
56122;SDS011;42426;46.104;19.656;2022-09-03T07:08:45;10.13;;;7.53;;
56122;SDS011;42426;46.104;19.656;2022-09-03T07:11:15;13.77;;;8.20;;
56122;SDS011;42426;46.104;19.656;2022-09-03T07:13:44;10.73;;;6.82;;
56122;SDS011;42426;46.104;19.656;2022-09-03T07:19:00;8.73;;;6.78;;
56122;SDS011;42426;46.104;19.656;2022-09-03T07:21:28;7.78;;;6.38;;
56122;SDS011;42426;46.104;19.656;2022-09-03T07:24:07;7.70;;;6.35;;
56122;SDS011;42426;46.104;19.656;2022-09-03T07:26:37;8.88;;;7.32;;
56122;SDS011;42426;46.104;19.656;2022-09-03T07:29:06;8.43;;;6.82;;
56122;SDS011;42426;46.104;19.656;2022-09-03T07:31:40;9.75;;;5.70;;
56122;SDS011;42426;46.104;19.656;2022-09-03T07:36:55;9.38;;;6.25;;
56122;SDS011;42426;46.104;19.656;2022-09-03T07:39:21;9.50;;;6.15;;
56122;SDS011;42426;46.104;19.656;2022-09-03T07:41:49;7.97;;;6.57;;
56122;SDS011;42426;46.104;19.656;2022-09-03T07:44:15;12.95;;;6.03;;
56122;SDS011;42426;46.104;19.656;2022-09-03T07:46:46;9.75;;;7.47;;
56122;SDS011;42426;46.104;19.656;2022-09-03T07:49:16;12.73;;;7.13;;
56122;SDS011;42426;46.104;19.656;2022-09-03T07:51:44;6.82;;;5.95;;
56122;SDS011;42426;46.104;19.656;2022-09-03T07:54:17;10.13;;;6.72;;
56122;SDS011;42426;46.104;19.656;2022-09-03T07:56:44;9.20;;;6.22;;
56122;SDS011;42426;46.104;19.656;2022-09-03T07:59:16;8.63;;;6.47;;
56122;SDS011;42426;46.104;19.656;2022-09-03T08:01:42;8.60;;;5.53;;
56122;SDS011;42426;46.104;19.656;2022-09-03T08:04:08;8.85;;;6.50;;
56122;SDS011;42426;46.104;19.656;2022-09-03T08:06:36;9.85;;;6.38;;
56122;SDS011;42426;46.104;19.656;2022-09-03T08:09:03;9.38;;;6.68;;
56122;SDS011;42426;46.104;19.656;2022-09-03T08:11:39;11.23;;;6.00;;
56122;SDS011;42426;46.104;19.656;2022-09-03T08:14:08;9.77;;;6.22;;
56122;SDS011;42426;46.104;19.656;2022-09-03T08:16:37;9.50;;;6.57;;
56122;SDS011;42426;46.104;19.656;2022-09-03T08:19:08;8.93;;;6.82;;
56122;SDS011;42426;46.104;19.656;2022-09-03T08:21:35;8.82;;;6.80;;
56122;SDS011;42426;46.104;19.656;2022-09-03T08:24:01;9.93;;;6.28;;
56122;SDS011;42426;46.104;19.656;2022-09-03T08:26:30;9.55;;;6.75;;
56122;SDS011;42426;46.104;19.656;2022-09-03T08:28:57;13.68;;;7.28;;
56122;SDS011;42426;46.104;19.656;2022-09-03T08:31:23;13.27;;;7.50;;
56122;SDS011;42426;46.104;19.656;2022-09-03T08:33:52;11.90;;;6.57;;
56122;SDS011;42426;46.104;19.656;2022-09-03T08:36:20;9.70;;;6.45;;
56122;SDS011;42426;46.104;19.656;2022-09-03T08:38:47;12.57;;;6.47;;
56122;SDS011;42426;46.104;19.656;2022-09-03T08:41:16;10.35;;;6.47;;
56122;SDS011;42426;46.104;19.656;2022-09-03T08:46:14;7.50;;;6.18;;
56122;SDS011;42426;46.104;19.656;2022-09-03T08:48:40;11.65;;;6.55;;
56122;SDS011;42426;46.104;19.656;2022-09-03T08:51:06;9.80;;;6.68;;
56122;SDS011;42426;46.104;19.656;2022-09-03T08:53:44;12.40;;;7.43;;
56122;SDS011;42426;46.104;19.656;2022-09-03T08:56:17;9.35;;;6.80;;
56122;SDS011;42426;46.104;19.656;2022-09-03T08:58:46;13.25;;;6.45;;
56122;SDS011;42426;46.104;19.656;2022-09-03T09:04:43;10.00;;;5.88;;
56122;SDS011;42426;46.104;19.656;2022-09-03T09:06:59;8.20;;;6.03;;
56122;SDS011;42426;46.104;19.656;2022-09-03T09:09:32;9.73;;;6.30;;
56122;SDS011;42426;46.104;19.656;2022-09-03T09:25:22;7.75;;;5.93;;
56122;SDS011;42426;46.104;19.656;2022-09-03T09:27:55;11.27;;;6.22;;
56122;SDS011;42426;46.104;19.656;2022-09-03T09:30:22;10.90;;;5.60;;
56122;SDS011;42426;46.104;19.656;2022-09-03T09:32:48;7.43;;;6.30;;
56122;SDS011;42426;46.104;19.656;2022-09-03T09:35:19;6.75;;;5.93;;
56122;SDS011;42426;46.104;19.656;2022-09-03T09:37:46;10.68;;;6.15;;
56122;SDS011;42426;46.104;19.656;2022-09-03T09:40:20;8.15;;;5.95;;
56122;SDS011;42426;46.104;19.656;2022-09-03T09:42:47;10.40;;;5.88;;
56122;SDS011;42426;46.104;19.656;2022-09-03T09:48:01;8.30;;;6.50;;
56122;SDS011;42426;46.104;19.656;2022-09-03T09:50:33;7.22;;;6.13;;
56122;SDS011;42426;46.104;19.656;2022-09-03T09:53:00;7.50;;;6.20;;
56122;SDS011;42426;46.104;19.656;2022-09-03T09:55:28;9.70;;;6.10;;
56122;SDS011;42426;46.104;19.656;2022-09-03T09:58:03;7.63;;;6.25;;
56122;SDS011;42426;46.104;19.656;2022-09-03T10:00:34;7.65;;;5.80;;
56122;SDS011;42426;46.104;19.656;2022-09-03T10:03:10;9.13;;;6.07;;
56122;SDS011;42426;46.104;19.656;2022-09-03T10:05:37;9.77;;;6.35;;
56122;SDS011;42426;46.104;19.656;2022-09-03T10:08:26;10.10;;;5.78;;
56122;SDS011;42426;46.104;19.656;2022-09-03T10:10:50;8.35;;;6.13;;
56122;SDS011;42426;46.104;19.656;2022-09-03T10:13:30;8.30;;;6.43;;
56122;SDS011;42426;46.104;19.656;2022-09-03T10:16:07;9.68;;;6.55;;
56122;SDS011;42426;46.104;19.656;2022-09-03T10:26:58;6.70;;;5.82;;
56122;SDS011;42426;46.104;19.656;2022-09-03T10:29:24;9.57;;;6.45;;
56122;SDS011;42426;46.104;19.656;2022-09-03T10:31:57;8.98;;;6.20;;
56122;SDS011;42426;46.104;19.656;2022-09-03T10:34:28;8.50;;;6.43;;
56122;SDS011;42426;46.104;19.656;2022-09-03T10:45:03;7.28;;;6.40;;
56122;SDS011;42426;46.104;19.656;2022-09-03T11:01:26;6.70;;;6.00;;
56122;SDS011;42426;46.104;19.656;2022-09-03T11:04:19;7.65;;;5.95;;
56122;SDS011;42426;46.104;19.656;2022-09-03T11:07:01;9.43;;;6.28;;
56122;SDS011;42426;46.104;19.656;2022-09-03T11:10:31;6.60;;;6.00;;
56122;SDS011;42426;46.104;19.656;2022-09-03T11:12:41;9.07;;;5.70;;
56122;SDS011;42426;46.104;19.656;2022-09-03T11:15:38;8.27;;;6.13;;
56122;SDS011;42426;46.104;19.656;2022-09-03T11:18:26;8.13;;;6.13;;
56122;SDS011;42426;46.104;19.656;2022-09-03T11:21:03;8.13;;;6.18;;
56122;SDS011;42426;46.104;19.656;2022-09-03T11:23:32;10.50;;;6.15;;
56122;SDS011;42426;46.104;19.656;2022-09-03T11:26:05;7.43;;;6.05;;
56122;SDS011;42426;46.104;19.656;2022-09-03T11:34:31;5.88;;;5.15;;
56122;SDS011;42426;46.104;19.656;2022-09-03T11:39:51;7.72;;;5.70;;
56122;SDS011;42426;46.104;19.656;2022-09-03T11:43:03;12.40;;;6.10;;
56122;SDS011;42426;46.104;19.656;2022-09-03T11:47:51;12.35;;;5.55;;
56122;SDS011;42426;46.104;19.656;2022-09-03T11:50:22;6.65;;;5.75;;
56122;SDS011;42426;46.104;19.656;2022-09-03T11:56:08;12.13;;;5.82;;
56122;SDS011;42426;46.104;19.656;2022-09-03T12:01:01;9.98;;;5.35;;
56122;SDS011;42426;46.104;19.656;2022-09-03T12:14:17;7.65;;;5.40;;
56122;SDS011;42426;46.104;19.656;2022-09-03T12:16:56;10.23;;;6.40;;
56122;SDS011;42426;46.104;19.656;2022-09-03T12:19:38;8.07;;;6.43;;
56122;SDS011;42426;46.104;19.656;2022-09-03T12:22:13;12.60;;;6.70;;
56122;SDS011;42426;46.104;19.656;2022-09-03T12:24:40;6.30;;;5.70;;
56122;SDS011;42426;46.104;19.656;2022-09-03T12:27:09;6.65;;;5.05;;
56122;SDS011;42426;46.104;19.656;2022-09-03T12:29:49;7.53;;;5.30;;
56122;SDS011;42426;46.104;19.656;2022-09-03T12:32:30;5.93;;;5.00;;
56122;SDS011;42426;46.104;19.656;2022-09-03T12:35:10;6.50;;;5.07;;
56122;SDS011;42426;46.104;19.656;2022-09-03T12:37:38;8.13;;;5.55;;
56122;SDS011;42426;46.104;19.656;2022-09-03T12:40:15;7.10;;;5.13;;
56122;SDS011;42426;46.104;19.656;2022-09-03T12:42:41;6.47;;;5.00;;
56122;SDS011;42426;46.104;19.656;2022-09-03T12:45:07;8.75;;;6.05;;
56122;SDS011;42426;46.104;19.656;2022-09-03T12:47:41;5.18;;;4.65;;
56122;SDS011;42426;46.104;19.656;2022-09-03T12:50:11;7.28;;;5.63;;
56122;SDS011;42426;46.104;19.656;2022-09-03T12:57:42;6.10;;;5.45;;
56122;SDS011;42426;46.104;19.656;2022-09-03T13:00:12;9.88;;;5.20;;
56122;SDS011;42426;46.104;19.656;2022-09-03T13:05:09;8.02;;;5.30;;
56122;SDS011;42426;46.104;19.656;2022-09-03T13:07:39;8.10;;;5.78;;
56122;SDS011;42426;46.104;19.656;2022-09-03T13:10:06;9.98;;;5.75;;
56122;SDS011;42426;46.104;19.656;2022-09-03T13:12:42;8.05;;;5.22;;
56122;SDS011;42426;46.104;19.656;2022-09-03T13:15:22;7.82;;;5.88;;
56122;SDS011;42426;46.104;19.656;2022-09-03T13:23:36;9.90;;;5.35;;
56122;SDS011;42426;46.104;19.656;2022-09-03T13:33:40;12.23;;;5.15;;
56122;SDS011;42426;46.104;19.656;2022-09-03T13:38:52;8.05;;;5.43;;
56122;SDS011;42426;46.104;19.656;2022-09-03T13:44:05;10.02;;;5.15;;
56122;SDS011;42426;46.104;19.656;2022-09-03T13:49:43;10.75;;;5.68;;
56122;SDS011;42426;46.104;19.656;2022-09-03T14:00:36;7.82;;;4.90;;
56122;SDS011;42426;46.104;19.656;2022-09-03T14:19:13;8.88;;;5.47;;
56122;SDS011;42426;46.104;19.656;2022-09-03T14:26:35;6.88;;;5.43;;
56122;SDS011;42426;46.104;19.656;2022-09-03T14:29:03;5.93;;;5.32;;
56122;SDS011;42426;46.104;19.656;2022-09-03T14:34:07;5.28;;;4.65;;
56122;SDS011;42426;46.104;19.656;2022-09-03T14:41:51;7.35;;;5.43;;
56122;SDS011;42426;46.104;19.656;2022-09-03T14:52:25;7.03;;;5.88;;
56122;SDS011;42426;46.104;19.656;2022-09-03T15:01:10;8.95;;;5.63;;
56122;SDS011;42426;46.104;19.656;2022-09-03T15:03:17;8.13;;;5.78;;
56122;SDS011;42426;46.104;19.656;2022-09-03T15:06:01;12.90;;;6.22;;
56122;SDS011;42426;46.104;19.656;2022-09-03T15:11:03;9.77;;;6.57;;
56122;SDS011;42426;46.104;19.656;2022-09-03T15:13:32;7.18;;;6.00;;
56122;SDS011;42426;46.104;19.656;2022-09-03T15:36:58;8.13;;;6.20;;
56122;SDS011;42426;46.104;19.656;2022-09-03T15:39:29;10.18;;;6.70;;
56122;SDS011;42426;46.104;19.656;2022-09-03T15:42:06;9.13;;;5.63;;
56122;SDS011;42426;46.104;19.656;2022-09-03T15:44:46;9.82;;;7.20;;
56122;SDS011;42426;46.104;19.656;2022-09-03T15:47:56;15.10;;;6.35;;
56122;SDS011;42426;46.104;19.656;2022-09-03T15:50:09;7.93;;;6.07;;
56122;SDS011;42426;46.104;19.656;2022-09-03T15:52:45;8.77;;;6.07;;
56122;SDS011;42426;46.104;19.656;2022-09-03T15:55:12;9.20;;;5.95;;
56122;SDS011;42426;46.104;19.656;2022-09-03T16:00:09;9.23;;;6.03;;
56122;SDS011;42426;46.104;19.656;2022-09-03T16:07:43;9.88;;;6.47;;
56122;SDS011;42426;46.104;19.656;2022-09-03T16:15:44;14.65;;;6.80;;
56122;SDS011;42426;46.104;19.656;2022-09-03T16:18:22;12.23;;;6.15;;
56122;SDS011;42426;46.104;19.656;2022-09-03T16:20:55;13.32;;;6.32;;
56122;SDS011;42426;46.104;19.656;2022-09-03T16:23:29;10.35;;;6.75;;
56122;SDS011;42426;46.104;19.656;2022-09-03T16:28:28;12.07;;;6.45;;
56122;SDS011;42426;46.104;19.656;2022-09-03T16:33:45;13.40;;;6.90;;
56122;SDS011;42426;46.104;19.656;2022-09-03T16:41:26;15.07;;;7.55;;
56122;SDS011;42426;46.104;19.656;2022-09-03T16:46:24;11.18;;;6.82;;
56122;SDS011;42426;46.104;19.656;2022-09-03T16:56:36;20.50;;;7.00;;
56122;SDS011;42426;46.104;19.656;2022-09-03T17:09:35;10.65;;;7.40;;
56122;SDS011;42426;46.104;19.656;2022-09-03T17:14:51;12.77;;;7.85;;
56122;SDS011;42426;46.104;19.656;2022-09-03T17:17:37;11.07;;;7.90;;
56122;SDS011;42426;46.104;19.656;2022-09-03T17:26:06;18.95;;;8.88;;
56122;SDS011;42426;46.104;19.656;2022-09-03T17:42:51;23.02;;;9.88;;
56122;SDS011;42426;46.104;19.656;2022-09-03T17:48:03;19.60;;;10.20;;
56122;SDS011;42426;46.104;19.656;2022-09-03T17:53:33;16.42;;;10.68;;
56122;SDS011;42426;46.104;19.656;2022-09-03T17:56:22;18.25;;;11.85;;
56122;SDS011;42426;46.104;19.656;2022-09-03T18:02:02;19.13;;;10.60;;
56122;SDS011;42426;46.104;19.656;2022-09-03T18:07:12;14.40;;;9.57;;
56122;SDS011;42426;46.104;19.656;2022-09-03T18:20:21;23.80;;;10.90;;
56122;SDS011;42426;46.104;19.656;2022-09-03T18:23:30;17.98;;;12.07;;
56122;SDS011;42426;46.104;19.656;2022-09-03T18:26:24;20.30;;;12.45;;
56122;SDS011;42426;46.104;19.656;2022-09-03T18:29:15;21.00;;;13.10;;
56122;SDS011;42426;46.104;19.656;2022-09-03T18:32:28;23.42;;;12.20;;
56122;SDS011;42426;46.104;19.656;2022-09-03T18:35:13;22.50;;;12.32;;
56122;SDS011;42426;46.104;19.656;2022-09-03T18:37:58;19.55;;;12.30;;
56122;SDS011;42426;46.104;19.656;2022-09-03T18:44:19;24.10;;;11.65;;
56122;SDS011;42426;46.104;19.656;2022-09-03T18:50:03;28.60;;;12.68;;
56122;SDS011;42426;46.104;19.656;2022-09-03T19:02:54;20.00;;;11.85;;
56122;SDS011;42426;46.104;19.656;2022-09-03T19:12:01;36.97;;;12.50;;
56122;SDS011;42426;46.104;19.656;2022-09-03T19:15:13;21.88;;;10.85;;
56122;SDS011;42426;46.104;19.656;2022-09-03T19:18:07;20.08;;;11.13;;
56122;SDS011;42426;46.104;19.656;2022-09-03T19:24:06;21.15;;;12.55;;
56122;SDS011;42426;46.104;19.656;2022-09-03T19:32:39;24.08;;;13.00;;
56122;SDS011;42426;46.104;19.656;2022-09-03T19:35:40;16.48;;;11.13;;
56122;SDS011;42426;46.104;19.656;2022-09-03T19:41:36;18.45;;;11.40;;
56122;SDS011;42426;46.104;19.656;2022-09-03T19:47:25;17.90;;;11.70;;
56122;SDS011;42426;46.104;19.656;2022-09-03T19:50:26;16.38;;;11.68;;
56122;SDS011;42426;46.104;19.656;2022-09-03T19:53:19;12.20;;;10.38;;
56122;SDS011;42426;46.104;19.656;2022-09-03T19:56:06;15.63;;;10.18;;
56122;SDS011;42426;46.104;19.656;2022-09-03T19:58:55;16.17;;;11.00;;
56122;SDS011;42426;46.104;19.656;2022-09-03T20:01:44;13.77;;;9.88;;
56122;SDS011;42426;46.104;19.656;2022-09-03T20:04:31;15.63;;;9.40;;
56122;SDS011;42426;46.104;19.656;2022-09-03T20:07:30;10.50;;;9.38;;
56122;SDS011;42426;46.104;19.656;2022-09-03T20:10:22;11.48;;;8.80;;
56122;SDS011;42426;46.104;19.656;2022-09-03T20:21:30;11.52;;;7.90;;
56122;SDS011;42426;46.104;19.656;2022-09-03T20:29:45;16.10;;;8.40;;
56122;SDS011;42426;46.104;19.656;2022-09-03T20:41:14;9.52;;;7.10;;
56122;SDS011;42426;46.104;19.656;2022-09-03T20:46:24;11.13;;;7.78;;
56122;SDS011;42426;46.104;19.656;2022-09-03T20:52:22;11.30;;;7.60;;
56122;SDS011;42426;46.104;19.656;2022-09-03T20:58:14;9.38;;;6.78;;
56122;SDS011;42426;46.104;19.656;2022-09-03T21:00:51;10.63;;;6.20;;
56122;SDS011;42426;46.104;19.656;2022-09-03T21:03:36;12.52;;;6.72;;
56122;SDS011;42426;46.104;19.656;2022-09-03T21:06:12;8.70;;;6.50;;
56122;SDS011;42426;46.104;19.656;2022-09-03T21:11:50;9.80;;;7.35;;
56122;SDS011;42426;46.104;19.656;2022-09-03T21:14:37;10.07;;;7.65;;
56122;SDS011;42426;46.104;19.656;2022-09-03T21:25:08;8.18;;;6.65;;
56122;SDS011;42426;46.104;19.656;2022-09-03T21:27:42;8.55;;;5.97;;
56122;SDS011;42426;46.104;19.656;2022-09-03T21:30:16;10.52;;;6.63;;
56122;SDS011;42426;46.104;19.656;2022-09-03T21:32:51;9.65;;;6.85;;
56122;SDS011;42426;46.104;19.656;2022-09-03T21:35:29;11.75;;;7.88;;
56122;SDS011;42426;46.104;19.656;2022-09-03T21:40:31;11.45;;;7.28;;
56122;SDS011;42426;46.104;19.656;2022-09-03T21:45:59;13.23;;;7.15;;
56122;SDS011;42426;46.104;19.656;2022-09-03T21:48:38;7.68;;;6.88;;
56122;SDS011;42426;46.104;19.656;2022-09-03T21:51:12;7.57;;;6.47;;
56122;SDS011;42426;46.104;19.656;2022-09-03T21:54:06;12.90;;;7.25;;
56122;SDS011;42426;46.104;19.656;2022-09-03T22:04:43;9.80;;;7.10;;
56122;SDS011;42426;46.104;19.656;2022-09-03T22:09:45;8.85;;;6.68;;
56122;SDS011;42426;46.104;19.656;2022-09-03T22:15:14;8.68;;;7.38;;
56122;SDS011;42426;46.104;19.656;2022-09-03T22:20:30;13.20;;;7.55;;
56122;SDS011;42426;46.104;19.656;2022-09-03T22:23:20;12.13;;;8.02;;
56122;SDS011;42426;46.104;19.656;2022-09-03T22:36:45;8.70;;;7.60;;
56122;SDS011;42426;46.104;19.656;2022-09-03T22:42:10;12.13;;;9.07;;
56122;SDS011;42426;46.104;19.656;2022-09-03T22:50:59;12.70;;;7.75;;
56122;SDS011;42426;46.104;19.656;2022-09-03T22:56:01;9.05;;;7.13;;
56122;SDS011;42426;46.104;19.656;2022-09-03T22:58:44;10.20;;;7.55;;
56122;SDS011;42426;46.104;19.656;2022-09-03T23:01:26;9.93;;;6.57;;